Time;durP1;ratioP1;P1;durP2;ratioP2;P2;SDS_P1;SDS_P2;PMS_P1;PMS_P2;Temp;Humidity;BMP_temperature;BMP_pressure;BME280_temperature;BME280_humidity;BME280_pressure;Samples;Min_cycle;Max_cycle;Signal;HPM_P1;HPM_P2
2022/06/11 00:01:19;;;;;;;2.67;1.40;;;;;;;24.74;36.75;101047.50;4197929;28;20555;-66
2022/06/11 00:03:21;;;;;;;1.25;1.05;;;;;;;24.72;36.90;101039.44;4198340;28;20032;-67
2022/06/11 00:05:22;;;;;;;1.48;1.23;;;;;;;24.71;36.68;101040.56;4198247;28;20097;-66
2022/06/11 00:07:24;;;;;;;1.40;1.10;;;;;;;24.71;37.08;101037.78;4198216;28;20082;-67
2022/06/11 00:09:27;;;;;;;3.78;1.33;;;;;;;24.71;36.66;101043.38;4199621;28;20094;-66
2022/06/11 00:11:29;;;;;;;1.35;1.25;;;;;;;24.71;36.92;101046.16;4198113;28;20040;-66
2022/06/11 00:13:30;;;;;;;1.70;1.20;;;;;;;24.70;36.72;101047.31;4198308;28;20086;-66
2022/06/11 00:15:33;;;;;;;1.58;1.20;;;;;;;24.69;36.61;101040.03;4198257;28;20036;-67
2022/06/11 00:17:34;;;;;;;2.25;1.52;;;;;;;24.69;36.56;101039.19;4198132;28;20094;-66
2022/06/11 00:19:36;;;;;;;1.90;1.15;;;;;;;24.69;36.63;101033.59;4197921;28;20036;-67
2022/06/11 00:21:45;;;;;;;1.40;1.30;;;;;;;24.68;36.87;101038.38;4198008;28;20044;-67
2022/06/11 00:23:47;;;;;;;1.50;1.25;;;;;;;24.63;36.70;101037.63;4197879;28;20041;-66
2022/06/11 00:25:48;;;;;;;1.42;1.30;;;;;;;24.69;36.68;101044.78;4196541;28;20044;-67
2022/06/11 00:27:50;;;;;;;1.13;1.02;;;;;;;24.66;36.81;101040.66;4197390;28;20090;-67
2022/06/11 00:29:52;;;;;;;1.92;1.40;;;;;;;24.68;36.66;101032.78;4197839;28;20041;-67
2022/06/11 00:31:56;;;;;;;1.52;1.23;;;;;;;24.61;36.69;101031.50;4197774;28;20044;-66
2022/06/11 00:34:01;;;;;;;1.67;1.30;;;;;;;24.67;36.97;101042.31;4197849;28;20040;-66
2022/06/11 00:36:04;;;;;;;1.25;1.15;;;;;;;24.64;36.83;101036.47;4197552;28;20040;-67
2022/06/11 00:38:07;;;;;;;1.98;1.15;;;;;;;24.61;36.77;101034.31;4198095;28;20094;-67
2022/06/11 00:40:12;;;;;;;1.50;1.40;;;;;;;24.68;36.59;101052.34;4198419;28;20036;-68
2022/06/11 00:42:22;;;;;;;1.30;1.20;;;;;;;24.66;37.00;101056.63;4197313;28;20048;-67
2022/06/11 00:44:24;;;;;;;1.42;1.33;;;;;;;24.66;36.93;101048.22;4197638;28;20450;-68
2022/06/11 00:46:54;;;;;;;1.38;1.25;;;;;;;24.66;36.64;101051.03;4196154;28;20086;-68
2022/06/11 00:48:56;;;;;;;1.38;1.17;;;;;;;24.68;36.89;101052.34;4198414;28;20479;-67
2022/06/11 00:51:16;;;;;;;1.17;1.02;;;;;;;24.66;36.67;101048.22;4198176;28;20090;-68
2022/06/11 00:53:50;;;;;;;1.67;1.40;;;;;;;24.65;36.63;101049.34;4198643;28;20099;-68
2022/06/11 00:55:54;;;;;;;1.83;1.30;;;;;;;24.68;36.75;101054.34;4198375;28;20071;-66
2022/06/11 00:58:04;;;;;;;1.60;1.13;;;;;;;24.66;36.69;101057.44;4197647;28;20037;-66
2022/06/11 01:00:15;;;;;;;1.33;1.23;;;;;;;24.60;36.49;101055.84;4198404;28;20552;-65
2022/06/11 01:02:21;;;;;;;1.50;1.40;;;;;;;24.66;36.50;101068.63;4199247;28;20049;-66
2022/06/11 01:04:47;;;;;;;1.10;1.00;;;;;;;24.65;36.75;101060.53;4202258;28;20098;-67
2022/06/11 01:06:56;;;;;;;1.35;0.90;;;;;;;24.66;36.50;101079.84;4201704;28;20418;-66
2022/06/11 01:09:21;;;;;;;1.33;1.20;;;;;;;24.58;36.68;101060.91;4201554;28;20093;-67
2022/06/11 01:11:50;;;;;;;1.30;1.17;;;;;;;24.63;36.70;101069.22;4201206;28;20086;-66
2022/06/11 01:14:06;;;;;;;1.10;1.00;;;;;;;24.65;36.45;101071.72;4201109;28;20041;-66
2022/06/11 01:16:17;;;;;;;1.10;1.00;;;;;;;24.63;36.90;101082.41;4201115;28;20032;-68
2022/06/11 01:18:40;;;;;;;1.65;1.30;;;;;;;24.62;36.75;101080.75;4200648;28;20036;-67
2022/06/11 01:21:05;;;;;;;1.63;1.35;;;;;;;24.59;37.04;101074.59;4203112;28;20032;-67
2022/06/11 01:23:53;;;;;;;1.30;1.07;;;;;;;24.60;36.94;101075.41;4200612;28;20079;-68
2022/06/11 01:26:27;;;;;;;1.30;1.10;;;;;;;24.63;36.72;101079.59;4182063;28;20480;-67
2022/06/11 01:28:55;;;;;;;1.52;1.30;;;;;;;24.61;36.71;101082.72;4198180;28;20109;-68
2022/06/11 01:31:07;;;;;;;1.70;1.20;;;;;;;24.63;36.78;101080.41;4200639;28;20094;-68
2022/06/11 01:33:41;;;;;;;1.52;1.25;;;;;;;24.61;36.65;101088.31;4200529;28;20041;-68
2022/06/11 01:35:46;;;;;;;1.33;1.23;;;;;;;24.62;36.65;101089.13;4198597;28;20486;-68
2022/06/11 01:38:03;;;;;;;1.23;1.13;;;;;;;24.61;36.72;101099.50;4197280;28;20106;-67
2022/06/11 01:40:08;;;;;;;1.25;1.15;;;;;;;24.59;36.94;101101.75;4200513;28;20040;-68
2022/06/11 01:42:35;;;;;;;1.30;1.20;;;;;;;24.59;36.93;101098.94;4200587;28;20028;-68
2022/06/11 01:44:39;;;;;;;1.70;1.15;;;;;;;24.63;36.69;101100.00;4200689;28;20032;-68
2022/06/11 01:46:47;;;;;;;1.13;1.02;;;;;;;24.62;36.88;101106.75;4200314;28;20377;-68
2022/06/11 01:48:57;;;;;;;1.30;1.20;;;;;;;24.60;36.92;101114.59;4199924;28;20154;-68
2022/06/11 01:51:27;;;;;;;1.38;1.08;;;;;;;24.56;36.75;101110.75;4200552;28;20097;-68
2022/06/11 01:53:41;;;;;;;2.25;1.10;;;;;;;24.60;36.71;101111.78;4200202;28;20086;-66
2022/06/11 01:55:48;;;;;;;1.25;1.15;;;;;;;24.60;36.49;101125.78;4203731;28;20102;-67
2022/06/11 01:58:27;;;;;;;1.88;1.50;;;;;;;24.58;36.99;101128.06;4200071;28;20045;-68
2022/06/11 02:00:38;;;;;;;1.85;1.20;;;;;;;24.61;36.80;101130.28;4178601;28;20063;-67
2022/06/11 02:03:00;;;;;;;1.40;1.30;;;;;;;24.58;36.88;101133.66;4200326;28;20052;-67
2022/06/11 02:05:25;;;;;;;1.70;1.52;;;;;;;24.58;36.67;101130.88;4199959;28;20045;-67
2022/06/11 02:08:00;;;;;;;1.35;1.25;;;;;;;24.47;36.84;101124.59;4199791;28;20102;-68
2022/06/11 02:10:14;;;;;;;1.50;1.40;;;;;;;24.59;36.51;101138.13;4200023;28;20032;-67
2022/06/11 02:12:41;;;;;;;1.23;1.13;;;;;;;24.56;36.76;101131.19;4211428;28;20377;-68
2022/06/11 02:15:17;;;;;;;2.70;1.40;;;;;;;24.54;36.84;101139.03;4216999;28;20089;-66
2022/06/11 02:17:36;;;;;;;1.05;0.95;;;;;;;24.57;36.73;101137.59;4208614;28;20040;-68
2022/06/11 02:19:46;;;;;;;1.50;1.20;;;;;;;24.58;36.80;101150.44;4216047;28;20206;-68
2022/06/11 02:22:14;;;;;;;1.15;1.05;;;;;;;24.55;36.69;101145.44;4216028;28;20024;-67
2022/06/11 02:24:26;;;;;;;1.25;1.15;;;;;;;24.56;36.73;101152.72;4216327;28;20483;-67
2022/06/11 02:26:35;;;;;;;1.40;1.30;;;;;;;24.54;36.54;101149.38;4216449;28;20445;-67
2022/06/11 02:28:42;;;;;;;2.80;1.40;;;;;;;24.56;36.57;101158.31;4210717;28;20040;-67
2022/06/11 02:30:46;;;;;;;2.35;1.30;;;;;;;24.56;36.73;101152.72;4201342;28;20131;-67
2022/06/11 02:32:48;;;;;;;1.35;1.25;;;;;;;24.56;36.53;101158.31;4205077;28;20556;-68
2022/06/11 02:34:54;;;;;;;1.35;1.25;;;;;;;24.55;36.66;101151.03;4216151;28;20040;-68
2022/06/11 02:37:20;;;;;;;1.33;1.23;;;;;;;24.52;36.46;101152.50;4209062;28;20037;-67
2022/06/11 02:39:22;;;;;;;2.03;1.25;;;;;;;24.47;36.59;101132.16;4199379;28;20044;-67
2022/06/11 02:41:28;;;;;;;1.58;1.40;;;;;;;24.54;36.70;101143.78;4199122;28;20029;-67
2022/06/11 02:43:30;;;;;;;1.35;1.25;;;;;;;24.54;36.40;101146.59;4199364;28;20040;-68
2022/06/11 02:45:31;;;;;;;1.30;1.20;;;;;;;24.54;36.58;101154.97;4199304;28;20036;-67
2022/06/11 02:47:33;;;;;;;1.70;1.60;;;;;;;24.54;36.65;101160.56;4198979;28;20094;-67
2022/06/11 02:49:36;;;;;;;1.33;1.20;;;;;;;24.54;36.52;101166.16;4209658;28;20093;-66
2022/06/11 02:51:38;;;;;;;1.20;1.10;;;;;;;24.52;36.67;101165.66;4225387;28;20035;-68
2022/06/11 02:53:39;;;;;;;1.10;0.88;;;;;;;24.53;36.67;101165.34;4217321;27;20074;-68
2022/06/11 02:55:42;;;;;;;1.20;1.10;;;;;;;24.52;36.56;101165.66;4216281;28;20157;-68
2022/06/11 02:57:44;;;;;;;1.05;0.90;;;;;;;24.53;36.67;101170.94;4231656;28;20096;-66
2022/06/11 02:59:45;;;;;;;1.25;1.15;;;;;;;24.45;36.29;101152.00;4232923;27;20031;-67
2022/06/11 03:01:52;;;;;;;1.77;1.25;;;;;;;24.52;36.63;101180.47;4232868;27;20100;-67
2022/06/11 03:03:53;;;;;;;1.50;1.40;;;;;;;24.53;36.40;101181.28;4233082;28;20081;-67
2022/06/11 03:05:57;;;;;;;1.92;1.23;;;;;;;24.53;36.21;101175.69;4225461;28;20101;-68
2022/06/11 03:08:00;;;;;;;1.73;1.13;;;;;;;24.52;36.57;101168.44;4218143;27;20043;-68
2022/06/11 03:10:02;;;;;;;2.08;1.33;;;;;;;24.51;36.42;101166.75;4231269;28;20039;-67
2022/06/11 03:12:05;;;;;;;1.40;1.30;;;;;;;24.51;36.52;101172.34;4232826;27;20101;-68
2022/06/11 03:14:07;;;;;;;1.40;1.30;;;;;;;24.50;36.05;101171.53;4217577;28;20433;-67
2022/06/11 03:16:11;;;;;;;1.60;1.17;;;;;;;24.50;36.45;101179.09;4215574;28;20048;-67
2022/06/11 03:18:15;;;;;;;1.20;1.00;;;;;;;24.48;36.49;101173.81;4215674;28;20048;-66
2022/06/11 03:20:25;;;;;;;1.30;1.15;;;;;;;24.47;36.59;101182.50;4215419;28;20536;-66
2022/06/11 03:22:27;;;;;;;1.60;1.38;;;;;;;24.49;36.38;101191.41;4216229;28;20036;-67
2022/06/11 03:24:28;;;;;;;1.30;1.02;;;;;;;24.50;36.46;101179.09;4211804;28;20833;-67
2022/06/11 03:26:30;;;;;;;1.33;1.23;;;;;;;24.46;36.45;101178.84;4222096;28;20433;-67
2022/06/11 03:28:31;;;;;;;1.33;1.20;;;;;;;24.49;36.51;101188.63;4231728;28;20108;-67
2022/06/11 03:30:33;;;;;;;0.95;0.95;;;;;;;24.44;36.07;101191.50;4233280;27;20040;-67
2022/06/11 03:32:37;;;;;;;1.42;1.33;;;;;;;24.48;36.21;101195.34;4232213;28;20039;-67
2022/06/11 03:34:39;;;;;;;1.40;1.10;;;;;;;24.48;36.26;101195.34;4232066;28;20440;-67
2022/06/11 03:36:40;;;;;;;2.63;1.10;;;;;;;24.48;36.44;101198.16;4232474;28;20036;-67
2022/06/11 03:38:43;;;;;;;1.42;1.30;;;;;;;24.46;36.41;101194.81;4231884;28;20036;-67
2022/06/11 03:40:45;;;;;;;1.70;1.20;;;;;;;24.45;36.21;101199.56;4232353;27;20475;-67
2022/06/11 03:42:47;;;;;;;1.55;1.33;;;;;;;24.46;36.34;101197.59;4214914;27;20040;-67
2022/06/11 03:44:54;;;;;;;1.30;1.20;;;;;;;24.46;36.45;101200.41;4198420;28;20094;-67
2022/06/11 03:46:56;;;;;;;1.27;1.17;;;;;;;24.38;36.11;101184.31;4207347;28;20040;-67
2022/06/11 03:48:57;;;;;;;1.60;1.50;;;;;;;24.46;36.19;101192.84;4215129;28;20449;-67
2022/06/11 03:51:00;;;;;;;1.30;1.20;;;;;;;24.45;36.41;101193.97;4215004;28;20044;-67
2022/06/11 03:53:06;;;;;;;1.55;1.27;;;;;;;24.44;36.41;101192.31;4213976;28;20036;-67
2022/06/11 03:55:08;;;;;;;1.45;1.30;;;;;;;24.45;36.14;101195.94;4215105;28;20089;-67
2022/06/11 03:57:12;;;;;;;1.27;1.15;;;;;;;24.45;36.45;101204.34;4215140;28;20498;-67
2022/06/11 03:59:15;;;;;;;2.15;1.35;;;;;;;24.44;36.13;101200.72;4207063;28;20082;-67
2022/06/11 04:01:19;;;;;;;1.70;1.27;;;;;;;24.44;36.02;101199.88;4199669;28;20044;-67
2022/06/11 04:03:21;;;;;;;1.20;1.10;;;;;;;24.44;36.30;101199.88;4214827;28;20097;-67
2022/06/11 04:05:22;;;;;;;1.25;1.15;;;;;;;24.42;36.26;101191.78;4215173;28;20044;-67
2022/06/11 04:07:24;;;;;;;2.17;1.38;;;;;;;24.41;36.07;101186.47;4214727;28;20032;-67
2022/06/11 04:09:33;;;;;;;1.58;1.30;;;;;;;24.40;36.44;101190.41;4215007;28;20093;-67
2022/06/11 04:11:35;;;;;;;1.60;1.15;;;;;;;24.41;36.12;101190.09;4214816;28;20036;-67
2022/06/11 04:13:41;;;;;;;1.50;1.40;;;;;;;24.35;36.29;101178.13;4213080;28;20392;-67
2022/06/11 04:15:44;;;;;;;3.22;1.30;;;;;;;24.33;36.23;101177.59;4214569;28;20097;-67
2022/06/11 04:17:45;;;;;;;2.45;0.93;;;;;;;24.40;36.45;101182.03;4207159;28;20036;-67
2022/06/11 04:19:49;;;;;;;1.35;1.20;;;;;;;24.40;36.14;101194.03;4200891;28;20490;-67
2022/06/11 04:21:54;;;;;;;1.88;1.50;;;;;;;24.40;36.41;101188.44;4212728;28;20044;-67
2022/06/11 04:23:58;;;;;;;5.47;3.15;;;;;;;24.41;36.32;101183.69;4214689;28;20039;-67
2022/06/11 04:26:10;;;;;;;8.23;6.50;;;;;;;24.35;36.32;101175.31;4215134;28;20093;-67
2022/06/11 04:28:13;;;;;;;14.10;10.05;;;;;;;24.30;36.38;101161.41;4213949;28;20117;-67
2022/06/11 04:30:14;;;;;;;13.90;10.85;;;;;;;24.39;36.53;101169.19;4214523;28;20105;-67
2022/06/11 04:32:17;;;;;;;16.98;12.13;;;;;;;24.35;36.56;101166.94;4213109;28;20437;-68
2022/06/11 04:34:20;;;;;;;21.13;13.05;;;;;;;24.37;36.75;101171.41;4201225;28;20074;-67
2022/06/11 04:36:24;;;;;;;15.57;12.23;;;;;;;24.38;36.62;101173.13;4199684;28;20356;-66
2022/06/11 04:38:29;;;;;;;17.92;11.82;;;;;;;24.32;36.37;101163.91;4196864;28;20090;-67
2022/06/11 04:40:30;;;;;;;18.67;12.18;;;;;;;24.38;36.40;101161.94;4214210;28;20085;-67
2022/06/11 04:42:34;;;;;;;14.02;11.20;;;;;;;24.37;36.50;101169.44;4214557;28;20537;-67
2022/06/11 04:44:40;;;;;;;14.82;10.77;;;;;;;24.38;36.56;101170.31;4213129;28;20101;-67
2022/06/11 04:46:42;;;;;;;12.13;10.68;;;;;;;24.38;36.38;101168.34;4213520;28;20044;-67
2022/06/11 04:48:45;;;;;;;13.85;10.10;;;;;;;24.36;36.27;101170.56;4214171;28;20040;-67
2022/06/11 04:50:46;;;;;;;14.70;9.77;;;;;;;24.37;36.34;101166.66;4214069;28;20101;-68
2022/06/11 04:52:48;;;;;;;11.98;9.35;;;;;;;24.37;36.46;101157.44;4204907;28;20475;-66
2022/06/11 04:54:49;;;;;;;11.02;8.20;;;;;;;24.26;36.41;101149.16;4192671;28;20062;-66
2022/06/11 04:56:51;;;;;;;11.88;8.93;;;;;;;24.37;36.41;101161.06;4198760;28;20092;-66
2022/06/11 04:58:53;;;;;;;11.88;8.18;;;;;;;24.37;36.41;101160.22;4213954;28;20153;-66
2022/06/11 05:00:54;;;;;;;11.63;8.55;;;;;;;24.34;36.47;101162.47;4214720;28;20040;-66
2022/06/11 05:02:55;;;;;;;9.98;8.10;;;;;;;24.37;36.00;101165.81;4212309;28;20036;-66
2022/06/11 05:04:57;;;;;;;12.40;8.13;;;;;;;24.35;36.36;101152.94;4213153;28;20044;-66
2022/06/11 05:06:58;;;;;;;9.90;7.82;;;;;;;24.36;36.54;101162.16;4217108;28;20090;-66
2022/06/11 05:09:00;;;;;;;9.38;7.80;;;;;;;24.34;36.37;101167.25;4214305;28;20089;-66
2022/06/11 05:11:04;;;;;;;8.40;7.30;;;;;;;24.35;36.22;101164.13;4214015;28;20044;-67
2022/06/11 05:13:10;;;;;;;9.07;6.82;;;;;;;24.33;36.30;101166.41;4214449;28;20040;-67
2022/06/11 05:15:12;;;;;;;8.13;6.55;;;;;;;24.34;36.54;101168.06;4205530;28;20065;-67
2022/06/11 05:17:19;;;;;;;7.90;6.47;;;;;;;24.32;36.51;101161.94;4195528;28;20045;-67
2022/06/11 05:19:21;;;;;;;11.50;7.45;;;;;;;24.34;36.19;101162.47;4209039;28;20035;-66
2022/06/11 05:21:23;;;;;;;7.50;6.30;;;;;;;24.32;36.48;101152.72;4214704;28;20036;-67
2022/06/11 05:23:24;;;;;;;7.07;6.15;;;;;;;24.31;36.23;101157.47;4214276;28;20036;-67
2022/06/11 05:25:25;;;;;;;8.05;6.47;;;;;;;24.26;36.17;101149.16;4213571;28;20105;-67
2022/06/11 05:27:27;;;;;;;9.50;5.72;;;;;;;24.31;36.16;101157.47;4213805;28;20360;-67
2022/06/11 05:29:40;;;;;;;7.25;5.90;;;;;;;24.31;36.37;101163.06;4213323;28;20097;-67
2022/06/11 05:31:42;;;;;;;8.43;5.85;;;;;;;24.32;36.29;101161.94;4214521;28;20117;-67
2022/06/11 05:33:44;;;;;;;7.68;5.70;;;;;;;24.27;36.22;101156.41;4201855;28;20041;-66
2022/06/11 05:35:47;;;;;;;8.88;5.18;;;;;;;24.32;36.40;101163.91;4206018;28;20073;-67
2022/06/11 05:37:51;;;;;;;7.57;5.47;;;;;;;24.33;36.44;101166.41;4214191;28;20086;-67
2022/06/11 05:39:54;;;;;;;7.97;5.22;;;;;;;24.32;36.53;101163.91;4213931;28;20043;-67
2022/06/11 05:41:56;;;;;;;8.32;5.38;;;;;;;24.29;36.51;101158.91;4214393;28;20101;-67
2022/06/11 05:43:57;;;;;;;6.75;5.00;;;;;;;24.30;36.30;101158.63;4214089;28;20036;-67
2022/06/11 05:46:20;;;;;;;8.30;4.90;;;;;;;24.28;36.24;101163.69;4213958;28;20097;-67
2022/06/11 05:48:27;;;;;;;9.05;5.25;;;;;;;24.30;36.57;101155.81;4214008;28;20541;-67
2022/06/11 05:50:33;;;;;;;6.13;4.85;;;;;;;24.31;36.38;101159.44;4214952;28;20044;-67
2022/06/11 05:52:39;;;;;;;6.20;5.05;;;;;;;24.27;36.16;101150.81;4198682;28;20096;-66
2022/06/11 05:54:41;;;;;;;5.93;4.63;;;;;;;24.29;36.50;101158.91;4200232;28;20036;-67
2022/06/11 05:56:43;;;;;;;6.13;4.30;;;;;;;24.28;36.08;101163.69;4200628;28;20033;-67
2022/06/11 05:58:52;;;;;;;4.88;4.10;;;;;;;24.26;36.62;101157.53;4199706;28;20036;-67
2022/06/11 06:00:58;;;;;;;4.20;3.75;;;;;;;24.26;36.40;101154.75;4212584;28;20040;-67
2022/06/11 06:03:00;;;;;;;6.70;4.63;;;;;;;24.26;36.37;101154.75;4216667;28;20097;-67
2022/06/11 06:05:01;;;;;;;6.82;3.75;;;;;;;24.24;36.34;101145.84;4213054;28;20039;-67
2022/06/11 06:07:06;;;;;;;5.47;3.95;;;;;;;24.26;36.10;101157.53;4216248;28;20044;-66
2022/06/11 06:09:08;;;;;;;5.68;3.80;;;;;;;24.23;36.26;101143.31;4216901;28;20486;-66
2022/06/11 06:11:09;;;;;;;4.13;3.58;;;;;;;24.15;36.43;101130.84;4199090;28;20504;-67
2022/06/11 06:15:31;;;;;;;4.93;3.92;;;;;;;24.26;36.19;101160.34;4200476;28;20098;-67
2022/06/11 06:17:32;;;;;;;4.82;3.80;;;;;;;24.26;36.36;101148.31;4199604;28;20070;-67
2022/06/11 06:19:34;;;;;;;5.20;3.67;;;;;;;24.25;36.05;101158.69;4200154;28;20036;-67
2022/06/11 06:21:37;;;;;;;5.55;3.53;;;;;;;24.26;36.44;101153.91;4200251;28;20095;-67
2022/06/11 06:23:38;;;;;;;4.65;3.45;;;;;;;24.25;36.40;101150.28;4212906;28;20097;-68
2022/06/11 06:25:43;;;;;;;4.05;3.65;;;;;;;24.24;36.47;101148.63;4216847;28;20097;-68
2022/06/11 06:27:44;;;;;;;4.03;3.63;;;;;;;24.24;36.34;101143.03;4206685;28;20394;-68
2022/06/11 06:29:45;;;;;;;4.97;3.50;;;;;;;24.23;36.49;101138.56;4200093;28;20052;-67
2022/06/11 06:31:47;;;;;;;3.70;3.30;;;;;;;24.23;36.16;101138.56;4199388;28;20040;-68
2022/06/11 06:33:52;;;;;;;3.80;3.35;;;;;;;24.22;36.32;101139.69;4199612;28;20449;-68
2022/06/11 06:35:53;;;;;;;5.03;3.22;;;;;;;24.15;36.61;101128.06;4199423;28;20044;-68
2022/06/11 06:37:57;;;;;;;4.03;3.35;;;;;;;24.22;36.46;101130.47;4197652;28;20431;-68
2022/06/11 06:40:02;;;;;;;4.20;3.20;;;;;;;24.18;36.28;101124.63;4214933;28;20044;-68
2022/06/11 06:42:07;;;;;;;5.55;3.10;;;;;;;24.12;36.22;101108.25;4214896;28;20284;-68
2022/06/11 06:44:11;;;;;;;4.80;3.20;;;;;;;24.17;36.28;101111.78;4208037;28;20133;-67
2022/06/11 06:46:15;;;;;;;3.42;3.13;;;;;;;24.21;36.40;101118.47;4198752;28;20101;-68
2022/06/11 06:48:17;;;;;;;4.78;2.92;;;;;;;24.21;36.26;101123.22;4216044;28;20028;-68
2022/06/11 06:50:18;;;;;;;3.20;2.83;;;;;;;24.20;36.18;101119.59;4216492;28;20040;-67
2022/06/11 06:52:20;;;;;;;3.55;3.03;;;;;;;24.19;36.33;101119.88;4216103;28;20093;-68
2022/06/11 06:54:22;;;;;;;4.70;2.97;;;;;;;24.19;36.45;101119.88;4215930;28;20044;-68
2022/06/11 06:56:29;;;;;;;3.72;2.88;;;;;;;24.19;36.48;101112.34;4215759;28;20569;-68
2022/06/11 06:58:30;;;;;;;4.68;3.00;;;;;;;24.18;36.16;101110.66;4215780;28;20463;-68
2022/06/11 07:00:32;;;;;;;4.03;3.00;;;;;;;24.13;36.36;101110.72;4214650;28;20093;-68
2022/06/11 07:02:33;;;;;;;3.67;3.00;;;;;;;24.06;36.15;101087.91;4214017;28;20088;-67
2022/06/11 07:04:35;;;;;;;4.55;3.08;;;;;;;24.18;36.57;101104.25;4201588;28;20048;-68
2022/06/11 07:06:37;;;;;;;2.78;2.47;;;;;;;24.17;36.49;101102.59;4205664;28;20044;-67
2022/06/11 07:08:38;;;;;;;3.75;2.67;;;;;;;24.17;36.60;101106.19;4214626;28;20039;-68
2022/06/11 07:10:40;;;;;;;3.05;2.75;;;;;;;24.12;36.14;101091.47;4215603;28;20044;-68
2022/06/11 07:12:42;;;;;;;3.33;2.45;;;;;;;24.17;36.50;101100.63;4216029;28;20362;-68
2022/06/11 07:14:43;;;;;;;3.00;2.58;;;;;;;24.11;36.41;101096.22;4215566;28;20082;-68
2022/06/11 07:16:58;;;;;;;2.50;2.30;;;;;;;24.15;36.15;101102.88;4215989;28;20048;-68
2022/06/11 07:19:03;;;;;;;2.67;2.45;;;;;;;24.13;36.06;101099.53;4213984;28;20062;-68
2022/06/11 07:21:09;;;;;;;4.00;2.60;;;;;;;24.15;36.18;101107.66;4214218;28;20040;-68
2022/06/11 07:23:18;;;;;;;2.50;2.30;;;;;;;24.15;36.35;101100.09;4206291;28;20044;-68
2022/06/11 07:25:23;;;;;;;2.92;2.42;;;;;;;24.15;36.16;101102.06;4213375;28;20040;-68
2022/06/11 07:27:27;;;;;;;2.63;2.33;;;;;;;24.14;36.24;101094.78;4214803;28;20036;-68
2022/06/11 07:29:38;;;;;;;3.70;2.50;;;;;;;24.13;36.50;101093.94;4215604;28;20097;-68
2022/06/11 07:31:48;;;;;;;2.60;2.40;;;;;;;24.09;36.49;101090.09;4214498;28;20471;-68
2022/06/11 07:33:50;;;;;;;3.58;2.45;;;;;;;24.13;36.46;101093.94;4216482;28;20028;-68
2022/06/11 07:35:53;;;;;;;2.42;2.15;;;;;;;24.13;36.28;101077.19;4200709;28;20068;-67
2022/06/11 07:37:55;;;;;;;3.00;2.65;;;;;;;24.11;36.19;101082.25;4216528;28;20097;-68
2022/06/11 07:39:56;;;;;;;3.08;2.28;;;;;;;24.13;36.11;101093.94;4218636;28;20040;-68
2022/06/11 07:41:58;;;;;;;2.78;2.58;;;;;;;24.15;36.49;101090.88;4201072;28;20153;-68
2022/06/11 07:43:59;;;;;;;3.08;2.50;;;;;;;24.09;36.31;101076.09;4201665;28;20541;-66
2022/06/11 07:46:03;;;;;;;2.67;2.45;;;;;;;24.15;36.10;101091.72;4199714;28;20037;-66
2022/06/11 07:48:08;;;;;;;2.75;2.45;;;;;;;24.14;36.37;101090.03;4207880;28;20418;-66
2022/06/11 07:50:13;;;;;;;;;;;;;;;24.13;36.29;101096.75;4214373;28;20044;-67
2022/06/11 07:52:19;;;;;;;2.40;2.20;;;;;;;24.18;36.37;101085.50;4218065;28;20395;-66
2022/06/11 07:54:21;;;;;;;2.50;2.30;;;;;;;24.17;36.05;101088.59;4212626;28;20039;-66
2022/06/11 07:56:25;;;;;;;2.65;2.38;;;;;;;24.16;36.34;101095.34;4213029;28;20487;-66
2022/06/11 07:58:37;;;;;;;2.35;2.15;;;;;;;24.05;36.39;101083.44;4200074;28;20533;-67
2022/06/11 08:00:45;;;;;;;2.20;2.00;;;;;;;24.11;36.61;101082.25;4209114;28;20471;-66
2022/06/11 08:02:49;;;;;;;2.70;2.00;;;;;;;24.10;36.50;101083.38;4197629;28;20102;-66
2022/06/11 08:04:51;;;;;;;2.85;2.58;;;;;;;24.03;36.55;101074.53;4198498;28;20033;-66
2022/06/11 08:06:55;;;;;;;2.63;2.30;;;;;;;24.09;36.37;101079.72;4205384;28;20039;-66
2022/06/11 08:08:57;;;;;;;2.33;2.05;;;;;;;24.10;36.42;101083.38;4212832;28;20028;-66
2022/06/11 08:11:00;;;;;;;2.63;2.38;;;;;;;24.10;36.41;101077.78;4214212;28;20125;-66
2022/06/11 08:13:02;;;;;;;2.95;2.47;;;;;;;24.09;36.33;101076.09;4213530;28;20044;-66
2022/06/11 08:15:05;;;;;;;4.13;2.45;;;;;;;24.06;36.65;101068.34;4213716;28;20113;-66
2022/06/11 08:17:06;;;;;;;2.65;2.17;;;;;;;24.07;36.56;101072.78;4210939;28;20036;-66
2022/06/11 08:19:08;;;;;;;3.00;2.00;;;;;;;24.06;36.22;101071.13;4209441;28;20101;-66
2022/06/11 08:21:12;;;;;;;2.22;2.03;;;;;;;24.08;36.31;101074.44;4213657;28;20499;-66
2022/06/11 08:23:14;;;;;;;4.40;2.15;;;;;;;23.97;36.29;101054.19;4213394;28;20040;-66
2022/06/11 08:25:16;;;;;;;2.92;2.15;;;;;;;24.07;36.35;101073.63;4212534;28;20043;-66
2022/06/11 08:27:18;;;;;;;2.30;1.73;;;;;;;24.07;36.04;101079.22;4213332;28;20052;-66
2022/06/11 08:29:20;;;;;;;3.25;2.25;;;;;;;24.06;36.33;101082.31;4213851;28;20028;-66
2022/06/11 08:31:22;;;;;;;2.25;2.05;;;;;;;24.06;36.21;101082.31;4213500;28;20048;-66
2022/06/11 08:33:23;;;;;;;2.55;2.35;;;;;;;24.04;36.40;101079.81;4213576;28;20048;-66
2022/06/11 08:35:28;;;;;;;2.13;1.92;;;;;;;24.05;36.15;101087.06;4205440;28;20047;-66
2022/06/11 08:37:29;;;;;;;3.03;2.40;;;;;;;24.05;36.18;101091.81;4193436;28;20040;-67
2022/06/11 08:39:32;;;;;;;2.08;1.80;;;;;;;24.03;36.38;101088.50;4204585;28;20040;-66
2022/06/11 08:41:38;;;;;;;2.20;2.00;;;;;;;24.03;36.50;101089.31;4213629;28;20040;-66
2022/06/11 08:43:44;;;;;;;1.95;1.85;;;;;;;24.03;36.53;101091.28;4213601;28;20040;-66
2022/06/11 08:45:52;;;;;;;2.00;1.80;;;;;;;24.03;36.26;101088.50;4213521;28;20392;-66
2022/06/11 08:48:01;;;;;;;2.90;2.60;;;;;;;24.02;36.20;101098.03;4212445;28;20109;-66
2022/06/11 08:50:04;;;;;;;1.88;1.70;;;;;;;24.03;36.20;101088.50;4214488;28;20039;-66
2022/06/11 08:52:20;;;;;;;2.22;2.03;;;;;;;24.01;36.24;101090.78;4212479;28;20035;-66
2022/06/11 08:54:35;;;;;;;2.67;1.88;;;;;;;24.00;36.08;101095.50;4212652;28;20074;-66
2022/06/11 08:57:04;;;;;;;3.92;2.10;;;;;;;24.02;36.28;101098.03;4196821;28;20044;-66
2022/06/11 08:59:31;;;;;;;2.05;1.77;;;;;;;24.02;36.29;101089.63;4206839;28;20044;-66
2022/06/11 09:01:54;;;;;;;2.15;1.95;;;;;;;24.01;36.42;101086.00;4204008;28;20036;-66
2022/06/11 09:04:08;;;;;;;2.60;1.98;;;;;;;24.01;36.39;101099.16;4214564;28;20052;-66
2022/06/11 09:06:19;;;;;;;2.65;1.90;;;;;;;24.01;36.43;101097.19;4214277;28;20078;-66
2022/06/11 09:08:49;;;;;;;2.50;1.88;;;;;;;24.00;36.33;101098.28;4212619;28;20117;-66
2022/06/11 09:11:21;;;;;;;2.28;1.98;;;;;;;23.99;36.35;101087.44;4211958;28;20040;-66
2022/06/11 09:13:41;;;;;;;2.40;2.20;;;;;;;23.99;36.44;101101.41;4213008;28;20390;-66
2022/06/11 09:15:56;;;;;;;2.17;2.03;;;;;;;23.99;35.94;101105.03;4201749;28;20557;-66
2022/06/11 09:18:23;;;;;;;2.25;2.00;;;;;;;23.96;36.17;101090.81;4212221;28;20035;-66
2022/06/11 09:20:56;;;;;;;1.77;1.67;;;;;;;23.95;35.96;101086.34;4213139;28;20036;-66
2022/06/11 09:23:11;;;;;;;2.70;2.10;;;;;;;23.97;35.99;101101.72;4212512;28;20520;-66
2022/06/11 09:25:36;;;;;;;2.40;2.20;;;;;;;23.97;36.33;101107.31;4213714;28;20040;-66
2022/06/11 09:27:50;;;;;;;3.13;2.20;;;;;;;23.97;36.16;101107.31;4217221;28;20051;-66
2022/06/11 09:30:05;;;;;;;2.55;1.95;;;;;;;23.93;36.12;101110.97;4217052;28;20089;-66
2022/06/11 09:32:34;;;;;;;2.73;2.40;;;;;;;23.95;36.41;101108.72;4206443;28;20093;-66
2022/06/11 09:34:50;;;;;;;1.83;1.73;;;;;;;23.92;36.39;101100.94;4213944;28;20429;-66
2022/06/11 09:37:05;;;;;;;2.20;2.00;;;;;;;23.98;36.32;101113.72;4217042;28;20058;-66
2022/06/11 09:39:36;;;;;;;2.03;1.83;;;;;;;23.95;36.30;101105.91;4216995;28;20100;-66
2022/06/11 09:41:49;;;;;;;2.00;1.80;;;;;;;23.96;36.56;101113.16;4216344;28;20091;-66
2022/06/11 09:44:18;;;;;;;2.28;2.08;;;;;;;23.98;36.56;101116.50;4217009;28;20040;-66
2022/06/11 09:46:22;;;;;;;2.30;2.10;;;;;;;23.98;36.46;101119.31;4215752;28;20040;-66
2022/06/11 09:48:26;;;;;;;2.38;2.15;;;;;;;23.98;36.48;101114.56;4214751;28;20074;-66
2022/06/11 09:50:51;;;;;;;2.15;1.92;;;;;;;23.96;36.25;101121.56;4207005;28;20129;-66
2022/06/11 09:52:55;;;;;;;1.98;1.80;;;;;;;23.98;36.19;101124.91;4208023;28;20425;-66
2022/06/11 09:55:33;;;;;;;1.60;1.48;;;;;;;23.96;36.27;101127.13;4215386;28;20048;-67